createdAt,value
2022-12-27T00:00:57.119Z,6.10
2022-12-27T00:03:24.388Z,5.15
2022-12-27T00:05:52.444Z,10.38
2022-12-27T00:08:19.740Z,10.57
2022-12-27T00:10:46.987Z,7.45
2022-12-27T00:13:14.382Z,8.10
2022-12-27T00:15:41.996Z,4.80
2022-12-27T00:18:09.429Z,13.23
2022-12-27T00:20:36.984Z,5.85
2022-12-27T00:23:04.177Z,2.83
2022-12-27T00:25:31.554Z,6.00
2022-12-27T00:27:58.799Z,9.98
2022-12-27T00:30:26.257Z,9.57
2022-12-27T00:32:53.746Z,7.13
2022-12-27T00:35:21.146Z,10.00
2022-12-27T00:37:48.491Z,5.97
2022-12-27T00:40:15.961Z,6.78
2022-12-27T00:42:43.190Z,5.35
2022-12-27T00:45:11.046Z,6.70
2022-12-27T00:47:38.420Z,15.02
2022-12-27T00:50:06.124Z,8.88
2022-12-27T00:52:33.648Z,9.15
2022-12-27T00:55:00.955Z,7.95
2022-12-27T00:57:28.181Z,5.57
2022-12-27T00:59:55.447Z,6.38
2022-12-27T01:02:22.805Z,8.85
2022-12-27T01:04:50.198Z,12.18
2022-12-27T01:07:18.305Z,9.45
2022-12-27T01:09:45.645Z,9.00
2022-12-27T01:12:13.056Z,13.70
2022-12-27T01:14:40.775Z,7.40
2022-12-27T01:17:08.362Z,9.23
2022-12-27T01:19:36.858Z,5.78
2022-12-27T01:22:05.167Z,11.73
2022-12-27T01:24:33.207Z,5.50
2022-12-27T01:27:00.718Z,9.30
2022-12-27T01:29:27.997Z,14.60
2022-12-27T01:31:55.511Z,10.38
2022-12-27T01:34:23.223Z,13.30
2022-12-27T01:36:50.646Z,8.88
2022-12-27T01:39:17.945Z,14.38
2022-12-27T01:42:03.633Z,10.90
2022-12-27T01:44:40.496Z,8.77
2022-12-27T01:47:40.236Z,11.32
2022-12-27T01:50:07.865Z,10.25
2022-12-27T01:52:47.764Z,6.07
2022-12-27T01:55:40.335Z,13.23
2022-12-27T01:58:13.636Z,7.22
2022-12-27T02:00:44.048Z,9.50
2022-12-27T02:03:13.897Z,9.98
2022-12-27T02:05:42.643Z,9.90
2022-12-27T02:08:41.361Z,8.38
2022-12-27T02:11:10.193Z,12.82
2022-12-27T02:13:42.423Z,12.32
2022-12-27T02:16:17.175Z,13.77
2022-12-27T02:18:46.135Z,11.20
2022-12-27T02:21:25.467Z,8.40
2022-12-27T02:24:51.286Z,8.77
2022-12-27T02:27:24.880Z,6.68
2022-12-27T02:30:07.382Z,9.70
2022-12-27T02:33:00.562Z,10.10
2022-12-27T02:36:09.299Z,6.63
2022-12-27T02:38:42.650Z,15.13
2022-12-27T02:41:30.961Z,12.85
2022-12-27T02:44:16.767Z,18.75
2022-12-27T02:47:03.706Z,8.52
2022-12-27T02:49:54.793Z,7.82
2022-12-27T02:52:46.836Z,7.20
2022-12-27T02:55:20.396Z,10.20
2022-12-27T02:58:00.531Z,11.40
2022-12-27T03:00:54.537Z,5.65
2022-12-27T03:03:29.058Z,9.68
2022-12-27T03:06:44.742Z,6.30
2022-12-27T03:09:49.108Z,9.60
2022-12-27T03:12:52.863Z,9.10
2022-12-27T03:15:45.138Z,8.45
2022-12-27T03:18:18.993Z,14.50
2022-12-27T03:21:08.075Z,8.65
2022-12-27T03:23:58.703Z,10.65
2022-12-27T03:26:28.645Z,7.97
2022-12-27T03:29:16.557Z,4.93
2022-12-27T03:32:06.528Z,11.48
2022-12-27T03:34:40.244Z,8.47
2022-12-27T03:37:37.912Z,8.90
2022-12-27T03:40:05.136Z,8.13
2022-12-27T03:42:56.941Z,13.48
2022-12-27T03:45:44.859Z,8.70
2022-12-27T03:48:20.217Z,11.80
2022-12-27T03:50:54.701Z,9.30
2022-12-27T03:53:29.887Z,9.00
2022-12-27T03:55:57.734Z,7.95
2022-12-27T03:58:25.062Z,17.05
2022-12-27T04:00:53.621Z,7.05
2022-12-27T04:03:21.036Z,16.42
2022-12-27T04:05:48.452Z,12.00
2022-12-27T04:08:34.310Z,7.97
2022-12-27T04:11:20.368Z,11.50
2022-12-27T04:14:06.376Z,12.55
2022-12-27T04:16:52.160Z,15.70
2022-12-27T04:19:38.050Z,11.32
2022-12-27T04:22:24.055Z,12.40
2022-12-27T04:25:12.162Z,12.23
2022-12-27T04:27:58.109Z,11.82
2022-12-27T04:30:43.984Z,8.15
2022-12-27T04:33:29.923Z,5.90
2022-12-27T04:36:01.372Z,14.32
2022-12-27T04:38:31.726Z,8.45
2022-12-27T04:41:17.727Z,9.00
2022-12-27T04:44:03.618Z,12.30
2022-12-27T04:46:49.539Z,11.82
2022-12-27T04:49:43.145Z,9.90
2022-12-27T04:52:33.211Z,15.77
2022-12-27T04:55:11.347Z,9.05
2022-12-27T04:57:38.675Z,11.52
2022-12-27T05:00:25.386Z,11.40
2022-12-27T05:02:53.144Z,11.23
2022-12-27T05:05:21.580Z,17.38
2022-12-27T05:08:09.596Z,17.95
2022-12-27T05:10:55.679Z,7.35
2022-12-27T05:13:41.626Z,15.63
2022-12-27T05:16:08.960Z,14.25
2022-12-27T05:18:36.403Z,8.02
2022-12-27T05:21:05.778Z,14.02
2022-12-27T05:23:56.780Z,7.93
2022-12-27T05:26:28.173Z,2.97
2022-12-27T05:28:57.600Z,10.82
2022-12-27T05:31:27.884Z,16.13
2022-12-27T05:33:57.229Z,8.05
2022-12-27T05:36:25.358Z,10.27
2022-12-27T05:38:52.843Z,8.88
2022-12-27T05:41:20.454Z,13.32
2022-12-27T05:43:48.018Z,5.57
2022-12-27T05:46:18.743Z,7.85
2022-12-27T05:51:21.403Z,7.05
2022-12-27T05:53:49.498Z,11.48
2022-12-27T05:56:19.670Z,9.20
2022-12-27T05:58:47.703Z,8.98
2022-12-27T06:01:17.101Z,16.70
2022-12-27T06:03:45.480Z,10.73
2022-12-27T06:06:13.418Z,8.10
2022-12-27T06:08:41.258Z,10.55
2022-12-27T06:11:12.754Z,9.35
2022-12-27T06:13:42.632Z,13.30
2022-12-27T06:16:12.570Z,10.65
2022-12-27T06:18:41.518Z,12.27
2022-12-27T06:21:12.461Z,11.02
2022-12-27T06:23:41.635Z,8.38
2022-12-27T06:26:12.828Z,14.35
2022-12-27T06:28:40.300Z,16.02
2022-12-27T06:31:10.775Z,9.48
2022-12-27T06:33:38.456Z,15.43
2022-12-27T06:36:10.381Z,17.85
2022-12-27T06:38:38.242Z,14.35
2022-12-27T06:41:08.691Z,10.55
2022-12-27T06:43:36.119Z,16.73
2022-12-27T06:46:06.292Z,9.43
2022-12-27T06:48:34.197Z,10.82
2022-12-27T06:51:08.190Z,14.32
2022-12-27T06:53:38.946Z,20.70
2022-12-27T06:58:34.907Z,19.10
2022-12-27T07:01:17.195Z,12.63
2022-12-27T07:03:48.818Z,20.55
2022-12-27T07:06:16.177Z,9.80
2022-12-27T07:08:43.620Z,10.00
2022-12-27T07:11:12.550Z,8.35
2022-12-27T07:13:43.260Z,12.32
2022-12-27T07:18:39.519Z,10.82
2022-12-27T07:21:12.015Z,11.15
2022-12-27T07:23:39.574Z,15.57
2022-12-27T07:26:12.464Z,12.55
2022-12-27T07:28:40.554Z,20.08
2022-12-27T07:31:12.320Z,9.45
2022-12-27T07:33:40.218Z,10.98
2022-12-27T07:36:11.522Z,10.20
2022-12-27T07:38:39.040Z,9.30
2022-12-27T07:41:06.421Z,11.18
2022-12-27T07:43:35.342Z,12.40
2022-12-27T07:46:16.141Z,11.07
2022-12-27T07:51:11.522Z,15.13
2022-12-27T07:53:39.152Z,14.90
2022-12-27T07:56:21.740Z,10.88
2022-12-27T07:58:54.732Z,14.65
2022-12-27T08:01:23.563Z,10.13
2022-12-27T08:03:51.502Z,28.02
2022-12-27T08:06:25.185Z,20.73
2022-12-27T08:08:54.107Z,10.63
2022-12-27T08:11:21.664Z,10.68
2022-12-27T08:13:48.893Z,16.13
2022-12-27T08:16:22.434Z,9.00
2022-12-27T08:18:49.867Z,18.85
2022-12-27T08:21:17.303Z,7.03
2022-12-27T08:23:44.882Z,19.05
2022-12-27T08:26:12.233Z,7.75
2022-12-27T08:28:39.733Z,13.40
2022-12-27T08:31:09.469Z,11.27
2022-12-27T08:33:37.551Z,11.97
2022-12-27T08:36:53.399Z,11.60
2022-12-27T08:38:55.924Z,8.05
2022-12-27T08:41:23.790Z,12.50
2022-12-27T08:43:51.177Z,13.00
2022-12-27T08:46:19.534Z,16.90
2022-12-27T08:48:48.983Z,11.43
2022-12-27T08:51:24.825Z,15.02
2022-12-27T08:53:57.622Z,12.50
2022-12-27T08:56:28.258Z,14.18
2022-12-27T08:58:55.562Z,15.30
2022-12-27T09:01:22.883Z,12.48
2022-12-27T09:03:50.381Z,15.00
2022-12-27T09:06:23.815Z,10.73
2022-12-27T09:08:52.306Z,7.97
2022-12-27T09:11:31.491Z,9.05
2022-12-27T09:14:05.052Z,14.43
2022-12-27T09:16:36.643Z,13.70
2022-12-27T09:19:04.380Z,11.98
2022-12-27T09:21:34.239Z,14.45
2022-12-27T09:24:01.956Z,11.03
2022-12-27T09:26:31.983Z,15.20
2022-12-27T09:29:00.746Z,7.93
2022-12-27T09:31:28.918Z,12.60
2022-12-27T09:33:57.077Z,16.85
2022-12-27T09:36:27.769Z,13.77
2022-12-27T09:42:45.974Z,12.95
2022-12-27T09:45:03.948Z,10.88
2022-12-27T09:47:43.471Z,15.70
2022-12-27T09:50:15.523Z,8.98
2022-12-27T09:53:01.880Z,8.77
2022-12-27T09:55:32.056Z,14.07
2022-12-27T09:58:13.597Z,14.32
2022-12-27T10:00:46.012Z,10.75
2022-12-27T10:03:14.946Z,10.02
2022-12-27T10:05:46.074Z,11.18
2022-12-27T10:08:33.471Z,10.20
2022-12-27T10:11:39.008Z,10.85
2022-12-27T10:14:23.971Z,10.73
2022-12-27T10:17:31.527Z,11.70
2022-12-27T10:20:16.480Z,10.85
2022-12-27T10:22:52.720Z,11.05
2022-12-27T10:25:25.789Z,14.88
2022-12-27T10:28:02.161Z,8.57
2022-12-27T10:30:31.157Z,12.70
2022-12-27T10:32:58.482Z,12.52
2022-12-27T10:35:26.586Z,16.20
2022-12-27T10:37:54.679Z,13.05
2022-12-27T10:40:35.618Z,10.93
2022-12-27T10:43:25.042Z,6.82
2022-12-27T10:45:53.451Z,7.20
2022-12-27T10:48:47.360Z,12.27
2022-12-27T10:51:17.598Z,7.35
2022-12-27T10:53:47.773Z,8.88
2022-12-27T10:56:21.304Z,7.93
2022-12-27T10:58:58.256Z,13.85
2022-12-27T11:01:29.873Z,13.68
2022-12-27T11:06:54.083Z,8.55
2022-12-27T11:09:33.487Z,16.80
2022-12-27T11:12:18.980Z,14.48
2022-12-27T11:15:20.490Z,20.35
2022-12-27T11:17:55.453Z,11.30
2022-12-27T11:20:41.739Z,6.68
2022-12-27T11:23:10.241Z,10.27
2022-12-27T11:25:53.149Z,11.15
2022-12-27T11:28:51.638Z,10.57
2022-12-27T11:31:48.773Z,7.70
2022-12-27T11:34:32.494Z,9.38
2022-12-27T11:37:07.750Z,6.82
2022-12-27T11:39:46.272Z,11.45
2022-12-27T11:42:29.578Z,11.48
2022-12-27T11:45:24.338Z,11.60
2022-12-27T11:48:01.083Z,11.15
2022-12-27T11:50:28.321Z,8.93
2022-12-27T11:53:04.728Z,12.00
2022-12-27T11:55:50.607Z,12.50
2022-12-27T11:58:46.151Z,6.13
2022-12-27T12:01:33.306Z,5.50
2022-12-27T12:04:37.969Z,8.40
2022-12-27T12:07:24.540Z,5.97
2022-12-27T12:10:00.963Z,12.55
2022-12-27T12:12:57.085Z,7.38
2022-12-27T12:15:58.114Z,15.80
2022-12-27T12:21:18.833Z,8.80
2022-12-27T12:24:31.162Z,12.57
2022-12-27T12:27:36.011Z,6.38
2022-12-27T12:30:12.865Z,11.43
2022-12-27T12:32:59.335Z,12.15
2022-12-27T12:35:44.014Z,10.23
2022-12-27T12:38:23.534Z,4.95
2022-12-27T12:41:02.749Z,10.35
2022-12-27T12:44:00.703Z,10.35
2022-12-27T12:47:02.661Z,9.30
2022-12-27T12:49:52.517Z,12.18
2022-12-27T12:52:25.920Z,4.93
2022-12-27T12:55:05.634Z,10.43
2022-12-27T12:57:36.252Z,8.43
2022-12-27T13:00:25.257Z,11.18
2022-12-27T13:03:28.048Z,5.72
2022-12-27T13:06:14.253Z,20.73
2022-12-27T13:09:10.260Z,7.22
2022-12-27T13:12:03.437Z,7.50
2022-12-27T13:14:51.825Z,6.00
2022-12-27T13:17:28.319Z,8.55
2022-12-27T13:20:06.789Z,11.05
2022-12-27T13:22:58.864Z,10.32
2022-12-27T13:25:50.129Z,10.73
2022-12-27T13:28:38.366Z,10.18
2022-12-27T13:31:19.369Z,8.07
2022-12-27T13:34:17.471Z,14.23
2022-12-27T13:37:09.189Z,11.00
2022-12-27T13:40:09.076Z,8.00
2022-12-27T13:42:44.325Z,5.45
2022-12-27T13:45:39.789Z,10.48
2022-12-27T13:48:07.155Z,8.32
2022-12-27T13:50:40.650Z,5.82
2022-12-27T13:53:17.688Z,13.93
2022-12-27T13:56:52.922Z,11.32
2022-12-27T13:59:37.821Z,11.85
2022-12-27T14:02:37.853Z,11.38
2022-12-27T14:05:14.307Z,8.48
2022-12-27T14:07:50.632Z,10.20
2022-12-27T14:10:46.515Z,7.60
2022-12-27T14:13:19.196Z,7.70
2022-12-27T14:16:05.120Z,17.20
2022-12-27T14:18:45.545Z,9.93
2022-12-27T14:21:21.820Z,7.80
2022-12-27T14:24:27.906Z,10.02
2022-12-27T14:27:16.642Z,15.48
2022-12-27T14:29:50.208Z,8.50
2022-12-27T14:32:20.526Z,11.77
2022-12-27T14:35:00.715Z,15.40
2022-12-27T14:37:49.874Z,12.75
2022-12-27T14:40:17.522Z,12.65
2022-12-27T14:43:28.482Z,8.18
2022-12-27T14:46:25.389Z,22.27
2022-12-27T14:49:10.918Z,13.57
2022-12-27T14:52:13.706Z,17.85
2022-12-27T14:55:18.546Z,8.63
2022-12-27T14:58:18.064Z,10.93
2022-12-27T15:01:23.129Z,14.35
2022-12-27T15:04:07.772Z,8.38
2022-12-27T15:07:12.128Z,14.40
2022-12-27T15:09:52.436Z,11.02
2022-12-27T15:12:28.815Z,9.90
2022-12-27T15:15:21.444Z,9.38
2022-12-27T15:18:38.726Z,18.88
2022-12-27T15:21:18.694Z,14.88
2022-12-27T15:23:59.665Z,8.38
2022-12-27T15:26:55.153Z,19.33
2022-12-27T15:29:33.547Z,15.95
2022-12-27T15:32:52.873Z,13.60
2022-12-27T15:35:45.844Z,18.85
2022-12-27T15:38:41.376Z,19.73
2022-12-27T15:41:08.685Z,11.88
2022-12-27T15:44:05.629Z,13.45
2022-12-27T15:47:04.247Z,15.23
2022-12-27T15:49:50.728Z,10.48
2022-12-27T15:52:28.409Z,14.60
2022-12-27T15:55:33.450Z,13.32
2022-12-27T15:58:05.847Z,16.38
2022-12-27T16:00:34.848Z,14.95
2022-12-27T16:03:25.821Z,17.90
2022-12-27T16:05:55.927Z,12.88
2022-12-27T16:08:32.544Z,14.13
2022-12-27T16:11:02.927Z,20.05
2022-12-27T16:13:46.792Z,20.65
2022-12-27T16:16:37.310Z,19.55
2022-12-27T16:19:22.675Z,22.88
2022-12-27T16:21:50.414Z,21.13
2022-12-27T16:24:25.483Z,22.98
2022-12-27T16:27:04.899Z,29.83
2022-12-27T16:29:35.163Z,25.70
2022-12-27T16:32:23.256Z,23.45
2022-12-27T16:34:55.438Z,20.95
2022-12-27T16:37:44.907Z,23.25
2022-12-27T16:40:40.725Z,23.42
2022-12-27T16:43:08.285Z,24.38
2022-12-27T16:45:39.910Z,21.98
2022-12-27T16:48:27.453Z,24.40
2022-12-27T16:51:06.914Z,22.60
2022-12-27T16:53:42.459Z,24.02
2022-12-27T16:56:20.633Z,22.42
2022-12-27T16:58:48.710Z,25.10
2022-12-27T17:01:19.202Z,22.48
2022-12-27T17:03:48.536Z,24.95
2022-12-27T17:06:34.821Z,24.83
2022-12-27T17:09:08.500Z,21.80
2022-12-27T17:12:01.772Z,24.48
2022-12-27T17:14:35.097Z,26.45
2022-12-27T17:17:23.658Z,24.13
2022-12-27T17:19:56.891Z,23.50
2022-12-27T17:22:32.119Z,26.88
2022-12-27T17:25:03.148Z,25.80
2022-12-27T17:27:58.761Z,25.15
2022-12-27T17:30:44.158Z,24.83
2022-12-27T17:33:17.844Z,26.60
2022-12-27T17:36:11.759Z,23.00
2022-12-27T17:39:16.602Z,24.40
2022-12-27T17:42:11.907Z,30.00
2022-12-27T17:45:01.282Z,29.60
2022-12-27T17:47:55.300Z,28.42
2022-12-27T17:50:28.750Z,25.80
2022-12-27T17:53:42.515Z,25.42
2022-12-27T17:56:36.851Z,31.58
2022-12-27T17:59:07.234Z,25.08
2022-12-27T18:01:53.083Z,26.27
2022-12-27T18:04:32.035Z,28.58
2022-12-27T18:07:05.626Z,24.10
2022-12-27T18:09:38.181Z,24.70
2022-12-27T18:12:19.015Z,24.63
2022-12-27T18:17:34.940Z,28.85
2022-12-27T18:20:27.075Z,22.20
2022-12-27T18:22:54.387Z,24.13
2022-12-27T18:25:24.979Z,23.88
2022-12-27T18:28:17.500Z,18.65
2022-12-27T18:30:57.127Z,28.38
2022-12-27T18:33:48.936Z,21.33
2022-12-27T18:36:50.671Z,23.20
2022-12-27T18:39:33.835Z,21.20
2022-12-27T18:42:06.066Z,25.20
2022-12-27T18:44:45.091Z,22.77
2022-12-27T18:47:23.138Z,21.50
2022-12-27T18:50:01.699Z,20.42
2022-12-27T18:52:34.992Z,29.85
2022-12-27T18:55:13.750Z,24.13
2022-12-27T18:57:41.111Z,23.02
2022-12-27T19:00:24.673Z,20.15
2022-12-27T19:02:54.588Z,22.02
2022-12-27T19:05:24.777Z,21.95
2022-12-27T19:07:58.247Z,23.98
2022-12-27T19:10:28.297Z,21.48
2022-12-27T19:12:56.670Z,18.13
2022-12-27T19:15:28.465Z,22.88
2022-12-27T19:18:02.003Z,22.35
2022-12-27T19:20:40.255Z,19.65
2022-12-27T19:23:31.696Z,21.98
2022-12-27T19:26:16.209Z,21.92
2022-12-27T19:28:45.689Z,25.73
2022-12-27T19:31:22.184Z,19.48
2022-12-27T19:34:02.604Z,16.60
2022-12-27T19:36:42.340Z,24.08
2022-12-27T19:39:21.142Z,22.35
2022-12-27T19:41:49.918Z,23.55
2022-12-27T19:44:18.088Z,18.30
2022-12-27T19:46:46.329Z,21.85
2022-12-27T19:52:01.203Z,19.70
2022-12-27T19:54:29.464Z,19.92
2022-12-27T19:56:57.044Z,17.58
2022-12-27T19:59:25.235Z,19.67
2022-12-27T20:01:53.346Z,21.42
2022-12-27T20:04:20.828Z,19.50
2022-12-27T20:06:50.540Z,18.48
2022-12-27T20:09:19.932Z,17.98
2022-12-27T20:11:49.403Z,16.23
2022-12-27T20:14:18.023Z,16.65
2022-12-27T20:16:46.915Z,14.90
2022-12-27T20:19:18.425Z,12.75
2022-12-27T20:21:46.822Z,16.88
2022-12-27T20:24:14.723Z,19.95
2022-12-27T20:26:42.840Z,21.85
2022-12-27T20:29:12.746Z,16.98
2022-12-27T20:31:45.222Z,16.60
2022-12-27T20:34:12.939Z,13.02
2022-12-27T20:36:41.688Z,21.27
2022-12-27T20:39:09.628Z,19.17
2022-12-27T20:41:37.416Z,14.45
2022-12-27T20:44:05.603Z,23.52
2022-12-27T20:46:32.854Z,12.25
2022-12-27T20:49:02.037Z,13.02
2022-12-27T20:51:32.051Z,11.18
2022-12-27T20:54:02.402Z,12.90
2022-12-27T20:56:31.852Z,13.18
2022-12-27T20:58:59.529Z,10.07
2022-12-27T21:01:27.554Z,12.38
2022-12-27T21:03:56.726Z,9.55
2022-12-27T21:06:26.643Z,9.27
2022-12-27T21:08:57.383Z,13.43
2022-12-27T21:11:29.405Z,14.00
2022-12-27T21:13:58.306Z,14.75
2022-12-27T21:16:28.308Z,11.40
2022-12-27T21:18:56.321Z,13.73
2022-12-27T21:21:28.779Z,12.05
2022-12-27T21:23:58.849Z,11.30
2022-12-27T21:26:31.733Z,16.98
2022-12-27T21:29:01.931Z,11.98
2022-12-27T21:31:31.089Z,15.07
2022-12-27T21:34:01.742Z,13.88
2022-12-27T21:36:31.595Z,11.68
2022-12-27T21:38:59.353Z,12.33
2022-12-27T21:41:29.908Z,15.40
2022-12-27T21:43:57.534Z,11.77
2022-12-27T21:46:34.011Z,10.85
2022-12-27T21:49:04.851Z,8.80
2022-12-27T21:54:00.992Z,7.30
2022-12-27T21:56:30.897Z,12.32
2022-12-27T21:59:00.650Z,11.57
2022-12-27T22:01:50.306Z,10.82
2022-12-27T22:06:47.783Z,10.25
2022-12-27T22:09:17.051Z,14.38
2022-12-27T22:11:44.489Z,9.75
2022-12-27T22:14:11.839Z,9.93
2022-12-27T22:16:40.103Z,8.40
2022-12-27T22:19:09.484Z,8.85
2022-12-27T22:21:38.193Z,9.15
2022-12-27T22:24:06.542Z,9.32
2022-12-27T22:26:39.448Z,8.48
2022-12-27T22:29:08.111Z,21.50
2022-12-27T22:31:37.850Z,13.13
2022-12-27T22:34:06.381Z,7.28
2022-12-27T22:36:34.381Z,12.18
2022-12-27T22:39:02.815Z,11.57
2022-12-27T22:41:35.513Z,6.78
2022-12-27T22:44:06.244Z,10.00
2022-12-27T22:49:22.010Z,9.70
2022-12-27T22:51:49.300Z,10.80
2022-12-27T22:54:16.657Z,5.55
2022-12-27T22:56:44.532Z,5.90
2022-12-27T22:59:16.354Z,7.70
2022-12-27T23:01:46.378Z,7.95
2022-12-27T23:04:14.760Z,5.57
2022-12-27T23:06:42.524Z,10.75
2022-12-27T23:09:09.996Z,8.50
2022-12-27T23:11:41.153Z,8.27
2022-12-27T23:14:15.772Z,9.38
2022-12-27T23:16:49.060Z,8.75
2022-12-27T23:19:19.419Z,11.65
2022-12-27T23:21:47.909Z,8.32
2022-12-27T23:24:15.471Z,8.30
2022-12-27T23:26:44.175Z,11.00
2022-12-27T23:29:14.527Z,11.95
2022-12-27T23:31:55.298Z,14.18
2022-12-27T23:34:28.739Z,7.95
2022-12-27T23:36:58.331Z,10.05
2022-12-27T23:39:26.065Z,10.45
2022-12-27T23:41:53.432Z,10.98
2022-12-27T23:44:33.788Z,8.48
2022-12-27T23:47:05.748Z,7.43
2022-12-27T23:49:34.215Z,5.72
2022-12-27T23:52:01.950Z,7.78
2022-12-27T23:54:35.990Z,9.32
2022-12-27T23:57:20.194Z,10.23
2022-12-27T23:59:51.256Z,8.52
